createdAt,value
2019-05-13T00:01:01.281Z,6.15
2019-05-13T00:03:33.395Z,6.09
2019-05-13T00:34:24.304Z,5.81
2019-05-13T00:37:07.847Z,5.78
2019-05-13T00:39:27.415Z,5.75
2019-05-13T00:42:16.766Z,5.72
2019-05-13T00:45:25.136Z,5.66
2019-05-13T00:50:45.009Z,5.47
2019-05-13T00:53:15.427Z,5.32
2019-05-13T00:55:48.263Z,5.22
2019-05-13T00:58:24.180Z,5.15
2019-05-13T01:01:07.832Z,5.08
2019-05-13T01:03:40.370Z,4.53
2019-05-13T01:12:18.275Z,4.83
2019-05-13T01:15:13.264Z,4.82
2019-05-13T01:18:15.669Z,4.87
2019-05-13T01:20:55.667Z,4.94
2019-05-13T01:23:45.339Z,5.03
2019-05-13T01:29:43.531Z,4.98
2019-05-13T01:32:35.248Z,5.13
2019-05-13T01:35:24.961Z,5.03
2019-05-13T01:41:24.033Z,4.11
2019-05-13T01:43:54.973Z,4.91
2019-05-13T01:46:44.329Z,4.93
2019-05-13T01:49:14.769Z,4.88
2019-05-13T01:51:45.087Z,4.86
2019-05-13T01:54:34.375Z,4.86
2019-05-13T01:57:23.940Z,4.87
2019-05-13T02:00:35.445Z,4.92
2019-05-13T02:03:06.375Z,4.27
2019-05-13T02:05:55.912Z,4.96
2019-05-13T02:08:45.396Z,4.93
2019-05-13T02:11:15.715Z,4.98
2019-05-13T02:14:23.964Z,4.99
2019-05-13T02:16:54.508Z,5.02
2019-05-13T02:19:47.282Z,5.03
2019-05-13T02:22:18.445Z,5.05
2019-05-13T02:24:53.639Z,5.09
2019-05-13T02:27:44.050Z,5.12
2019-05-13T02:30:16.805Z,5.16
2019-05-13T02:32:47.518Z,5.11
2019-05-13T02:35:36.850Z,5.05
2019-05-13T02:38:30.834Z,4.99
2019-05-13T02:41:17.777Z,4.90
2019-05-13T02:43:52.384Z,4.81
2019-05-13T02:46:39.875Z,4.77
2019-05-13T02:49:32.445Z,4.65
2019-05-13T02:52:03.191Z,4.58
2019-05-13T02:57:52.691Z,4.58
2019-05-13T03:00:23.560Z,4.51
2019-05-13T03:05:52.730Z,4.51
2019-05-13T03:08:46.273Z,4.44
2019-05-13T03:11:22.904Z,4.48
2019-05-13T03:14:07.855Z,4.52
2019-05-13T03:19:24.862Z,4.43
2019-05-13T03:21:56.054Z,4.52
2019-05-13T03:24:45.352Z,4.39
2019-05-13T03:27:20.208Z,4.40
2019-05-13T03:30:08.334Z,4.31
2019-05-13T03:33:02.341Z,4.28
2019-05-13T03:35:35.953Z,4.22
2019-05-13T03:38:23.448Z,4.25
2019-05-13T03:41:14.287Z,4.18
2019-05-13T03:44:05.067Z,4.13
2019-05-13T03:46:55.180Z,4.05
2019-05-13T03:49:44.670Z,4.06
2019-05-13T03:52:18.380Z,4.12
2019-05-13T03:55:12.826Z,4.04
2019-05-13T03:58:02.935Z,4.04
2019-05-13T04:00:53.998Z,4.01
2019-05-13T04:03:44.140Z,4.00
2019-05-13T04:06:34.698Z,4.07
2019-05-13T04:09:31.091Z,4.08
2019-05-13T04:11:56.573Z,4.15
2019-05-13T04:14:47.257Z,4.20
2019-05-13T04:17:17.858Z,3.86
2019-05-13T04:20:07.993Z,4.32
2019-05-13T04:22:57.434Z,4.20
2019-05-13T04:25:27.890Z,4.57
2019-05-13T04:27:58.492Z,4.73
2019-05-13T04:30:32.731Z,4.86
2019-05-13T04:33:02.368Z,4.98
2019-05-13T04:35:33.544Z,5.10
2019-05-13T04:38:23.271Z,5.23
2019-05-13T04:40:53.672Z,5.34
2019-05-13T04:43:34.775Z,5.46
2019-05-13T04:46:23.164Z,5.53
2019-05-13T04:48:53.688Z,5.61
2019-05-13T04:51:24.509Z,5.71
2019-05-13T04:54:13.923Z,5.78
2019-05-13T04:56:45.548Z,5.86
2019-05-13T04:59:40.079Z,5.92
2019-05-13T05:02:39.889Z,5.13
2019-05-13T05:05:45.770Z,6.08
2019-05-13T05:08:57.989Z,6.17
2019-05-13T05:12:02.122Z,6.07
2019-05-13T05:14:59.165Z,6.42
2019-05-13T05:18:06.637Z,6.50
2019-05-13T05:21:08.831Z,6.57
2019-05-13T05:27:11.937Z,6.74
2019-05-13T05:30:22.697Z,6.85
2019-05-13T05:33:23.383Z,7.00
2019-05-13T05:36:21.843Z,7.14
2019-05-13T05:39:16.323Z,7.26
2019-05-13T05:42:07.120Z,7.34
2019-05-13T05:44:39.555Z,7.42
2019-05-13T05:47:31.784Z,7.52
2019-05-13T05:50:23.003Z,7.61
2019-05-13T05:53:13.151Z,7.56
2019-05-13T05:55:43.642Z,7.75
2019-05-13T06:01:24.309Z,7.89
2019-05-13T06:04:08.239Z,8.02
2019-05-13T06:06:41.382Z,8.12
2019-05-13T06:09:13.968Z,8.18
2019-05-13T06:11:44.428Z,8.33
2019-05-13T06:14:17.177Z,8.40
2019-05-13T06:16:47.778Z,8.42
2019-05-13T06:19:18.705Z,8.48
2019-05-13T06:22:08.227Z,8.52
2019-05-13T06:24:38.829Z,8.58
2019-05-13T06:27:31.680Z,8.72
2019-05-13T06:30:02.477Z,8.84
2019-05-13T06:32:33.401Z,9.01
2019-05-13T06:38:17.424Z,9.15
2019-05-13T06:41:02.481Z,9.26
2019-05-13T06:43:24.449Z,9.44
2019-05-13T06:45:55.540Z,9.50
2019-05-13T06:48:26.198Z,9.56
2019-05-13T06:51:22.229Z,9.62
2019-05-13T06:54:07.216Z,9.61
2019-05-13T06:56:37.541Z,9.76
2019-05-13T06:59:14.156Z,9.85
2019-05-13T07:01:56.066Z,9.89
2019-05-13T07:04:46.811Z,10.01
2019-05-13T07:07:36.447Z,10.04
2019-05-13T07:10:07.193Z,9.40
2019-05-13T07:15:35.974Z,9.54
2019-05-13T07:18:06.767Z,10.53
2019-05-13T07:20:37.393Z,10.68
2019-05-13T07:23:31.881Z,10.72
2019-05-13T07:26:22.314Z,10.88
2019-05-13T07:29:05.918Z,11.10
2019-05-13T07:31:36.775Z,11.22
2019-05-13T07:34:07.500Z,11.36
2019-05-13T07:36:44.193Z,11.19
2019-05-13T07:39:55.475Z,11.14
2019-05-13T07:42:47.091Z,11.32
2019-05-13T07:48:31.851Z,11.80
2019-05-13T07:54:11.470Z,11.96
2019-05-13T07:59:53.171Z,12.51
2019-05-13T08:02:24.245Z,12.61
2019-05-13T08:04:54.823Z,12.88
2019-05-13T08:07:51.377Z,13.12
2019-05-13T08:10:21.952Z,13.30
2019-05-13T08:12:52.521Z,13.43
2019-05-13T08:15:23.532Z,13.52
2019-05-13T08:18:13.041Z,13.73
2019-05-13T08:20:44.607Z,14.03
2019-05-13T08:23:15.174Z,14.55
2019-05-13T08:26:04.717Z,15.23
2019-05-13T08:28:35.315Z,16.14
2019-05-13T08:31:33.181Z,17.15
2019-05-13T08:34:16.372Z,17.40
2019-05-13T08:36:55.341Z,18.16
2019-05-13T08:39:44.728Z,18.66
2019-05-13T08:42:19.864Z,18.99
2019-05-13T08:45:07.778Z,19.22
2019-05-13T08:47:42.096Z,19.34
2019-05-13T08:50:33.857Z,19.38
2019-05-13T08:53:04.255Z,20.06
2019-05-13T08:55:36.350Z,20.13
2019-05-13T08:58:07.087Z,20.84
2019-05-13T09:00:49.429Z,21.31
2019-05-13T09:03:21.574Z,21.08
2019-05-13T09:05:52.780Z,20.85
2019-05-13T09:11:22.199Z,20.78
2019-05-13T09:17:01.952Z,18.12
2019-05-13T09:19:33.678Z,19.29
2019-05-13T09:22:04.412Z,18.65
2019-05-13T09:24:37.837Z,18.22
2019-05-13T09:27:15.303Z,17.27
2019-05-13T09:29:48.160Z,18.44
2019-05-13T09:35:16.418Z,20.02
2019-05-13T09:38:05.698Z,21.16
2019-05-13T09:40:55.074Z,21.77
2019-05-13T09:43:25.492Z,22.16
2019-05-13T09:46:01.853Z,22.61
2019-05-13T09:48:32.291Z,22.30
2019-05-13T09:51:02.811Z,23.01
2019-05-13T09:53:36.422Z,22.41
2019-05-13T09:56:25.558Z,22.51
2019-05-13T09:59:15.180Z,23.63
2019-05-13T10:02:39.017Z,23.12
2019-05-13T10:05:16.275Z,21.92
2019-05-13T10:07:50.716Z,22.60
2019-05-13T10:10:22.337Z,22.04
2019-05-13T10:13:08.139Z,22.60
2019-05-13T10:15:32.344Z,22.80
2019-05-13T10:18:02.039Z,21.86
2019-05-13T10:20:58.457Z,20.32
2019-05-13T10:23:27.985Z,20.08
2019-05-13T10:26:03.287Z,19.44
2019-05-13T10:28:34.040Z,18.59
2019-05-13T10:31:24.674Z,19.05
2019-05-13T10:33:55.116Z,19.58
2019-05-13T10:36:25.531Z,19.49
2019-05-13T10:38:57.892Z,19.22
2019-05-13T10:41:28.527Z,18.66
2019-05-13T10:44:17.828Z,17.65
2019-05-13T10:46:48.145Z,17.09
2019-05-13T10:49:22.168Z,16.97
2019-05-13T10:51:52.692Z,17.58
2019-05-13T10:54:48.839Z,17.49
2019-05-13T10:58:02.404Z,16.81
2019-05-13T11:00:54.798Z,16.37
2019-05-13T11:03:44.164Z,17.22
2019-05-13T11:06:15.845Z,18.16
2019-05-13T11:08:46.492Z,18.39
2019-05-13T11:11:35.851Z,18.07
2019-05-13T11:14:27.539Z,17.88
2019-05-13T11:17:16.923Z,17.67
2019-05-13T11:20:06.856Z,17.82
2019-05-13T11:22:37.401Z,18.09
2019-05-13T11:25:42.464Z,18.18
2019-05-13T11:28:19.366Z,17.84
2019-05-13T11:31:03.524Z,17.75
2019-05-13T11:33:53.058Z,18.51
2019-05-13T11:36:45.126Z,18.50
2019-05-13T11:39:15.552Z,18.45
2019-05-13T11:42:19.668Z,18.63
2019-05-13T11:45:15.105Z,18.71
2019-05-13T11:51:26.848Z,18.75
2019-05-13T11:57:22.063Z,18.52
2019-05-13T12:00:13.671Z,18.90
2019-05-13T12:02:53.828Z,19.13
2019-05-13T12:05:26.609Z,18.98
2019-05-13T12:07:58.178Z,17.82
2019-05-13T12:10:47.751Z,17.58
2019-05-13T12:13:37.287Z,17.34
2019-05-13T12:16:28.442Z,17.51
2019-05-13T12:18:58.905Z,17.73
2019-05-13T12:22:16.518Z,17.39
2019-05-13T12:24:46.985Z,17.39
2019-05-13T12:27:41.919Z,17.97
2019-05-13T12:33:22.691Z,18.13
2019-05-13T12:42:04.137Z,18.07
2019-05-13T12:44:59.396Z,18.41
2019-05-13T12:50:23.295Z,18.62
2019-05-13T12:53:12.860Z,18.57
2019-05-13T12:59:13.679Z,19.58
2019-05-13T13:02:24.679Z,19.38
2019-05-13T13:05:13.567Z,18.43
2019-05-13T13:08:16.105Z,18.07
2019-05-13T13:11:00.535Z,18.80
2019-05-13T13:16:14.511Z,23.51
2019-05-13T13:18:45.725Z,24.79
2019-05-13T13:21:37.552Z,25.73
2019-05-13T13:24:26.598Z,26.92
2019-05-13T13:26:57.759Z,26.41
2019-05-13T13:29:47.694Z,26.89
2019-05-13T13:32:32.187Z,27.03
2019-05-13T13:35:03.732Z,25.69
2019-05-13T13:37:53.246Z,26.39
2019-05-13T13:40:45.554Z,26.76
2019-05-13T13:43:37.047Z,26.31
2019-05-13T13:46:36.863Z,24.90
2019-05-13T13:49:36.031Z,25.18
2019-05-13T13:52:06.591Z,26.01
2019-05-13T13:54:44.291Z,27.38
2019-05-13T13:57:13.927Z,28.50
2019-05-13T14:00:22.654Z,26.59
2019-05-13T14:02:42.380Z,23.05
2019-05-13T14:05:38.984Z,25.14
2019-05-13T14:08:28.481Z,26.63
2019-05-13T14:11:23.134Z,27.60
2019-05-13T14:14:05.221Z,28.03
2019-05-13T14:16:35.591Z,28.57
2019-05-13T14:19:07.367Z,29.12
2019-05-13T14:22:01.110Z,29.54
2019-05-13T14:24:51.823Z,29.92
2019-05-13T14:27:42.106Z,27.47
2019-05-13T14:30:51.678Z,28.11
2019-05-13T14:33:04.058Z,27.91
2019-05-13T14:35:53.627Z,27.37
2019-05-13T14:38:42.977Z,26.98
2019-05-13T14:41:13.368Z,27.00
2019-05-13T14:43:45.756Z,26.17
2019-05-13T14:46:46.293Z,25.84
2019-05-13T14:49:26.167Z,25.79
2019-05-13T14:51:56.632Z,26.55
2019-05-13T14:54:28.175Z,27.09
2019-05-13T14:57:21.779Z,27.64
2019-05-13T14:59:51.817Z,27.73
2019-05-13T15:02:42.071Z,27.75
2019-05-13T15:05:12.809Z,28.46
2019-05-13T15:08:05.498Z,28.73
2019-05-13T15:10:54.850Z,27.38
2019-05-13T15:13:26.671Z,27.72
2019-05-13T15:16:34.952Z,27.10
2019-05-13T15:19:05.772Z,27.50
2019-05-13T15:22:05.884Z,26.74
2019-05-13T15:24:43.340Z,27.51
2019-05-13T15:27:38.396Z,26.23
2019-05-13T15:30:52.750Z,25.18
2019-05-13T15:33:42.430Z,22.67
2019-05-13T15:36:15.985Z,23.01
2019-05-13T15:39:09.565Z,23.96
2019-05-13T15:42:31.831Z,25.28
2019-05-13T15:44:46.384Z,25.48
2019-05-13T15:47:24.085Z,25.44
2019-05-13T15:49:50.467Z,24.14
2019-05-13T15:52:43.515Z,21.58
2019-05-13T15:55:15.313Z,20.42
2019-05-13T15:57:48.526Z,19.58
2019-05-13T16:00:41.917Z,18.88
2019-05-13T16:03:14.697Z,18.69
2019-05-13T16:05:45.281Z,18.54
2019-05-13T16:08:22.195Z,18.21
2019-05-13T16:10:53.468Z,18.04
2019-05-13T16:13:51.771Z,17.84
2019-05-13T16:16:41.658Z,17.69
2019-05-13T16:22:22.849Z,17.02
2019-05-13T16:28:20.098Z,16.66
2019-05-13T16:31:02.439Z,16.76
2019-05-13T16:33:44.636Z,17.07
2019-05-13T16:36:15.031Z,17.13
2019-05-13T16:39:12.293Z,17.05
2019-05-13T16:42:05.370Z,16.94
2019-05-13T16:44:57.278Z,16.70
2019-05-13T16:47:55.856Z,16.48
2019-05-13T16:50:24.809Z,16.35
2019-05-13T16:53:07.122Z,16.31
2019-05-13T16:55:54.857Z,16.17
2019-05-13T16:58:36.978Z,16.03
2019-05-13T17:03:54.970Z,15.94
2019-05-13T17:06:25.318Z,15.70
2019-05-13T17:08:56.154Z,15.44
2019-05-13T17:11:41.790Z,15.22
2019-05-13T17:16:53.382Z,14.88
2019-05-13T17:22:09.306Z,14.78
2019-05-13T17:25:07.111Z,14.79
2019-05-13T17:27:37.788Z,14.73
2019-05-13T17:33:23.054Z,14.54
2019-05-13T17:36:12.670Z,14.42
2019-05-13T17:39:41.519Z,14.33
2019-05-13T17:42:12.362Z,14.31
2019-05-13T17:44:46.278Z,14.26
2019-05-13T17:47:27.792Z,14.20
2019-05-13T17:49:58.242Z,14.19
2019-05-13T17:52:29.545Z,14.16
2019-05-13T17:55:01.256Z,14.21
2019-05-13T17:57:35.193Z,14.17
2019-05-13T18:00:26.471Z,14.24
2019-05-13T18:03:20.267Z,14.19
2019-05-13T18:06:11.475Z,14.11
2019-05-13T18:09:04.453Z,13.36
2019-05-13T18:12:06.729Z,14.05
2019-05-13T18:14:51.503Z,13.96
2019-05-13T18:17:41.743Z,13.84
2019-05-13T18:20:33.876Z,13.72
2019-05-13T18:23:23.239Z,13.66
2019-05-13T18:26:16.177Z,13.49
2019-05-13T18:28:48.256Z,13.36
2019-05-13T18:31:18.592Z,13.29
2019-05-13T18:34:04.675Z,13.33
2019-05-13T18:36:46.358Z,13.28
2019-05-13T18:39:28.039Z,13.34
2019-05-13T18:42:17.948Z,13.29
2019-05-13T18:45:27.803Z,13.22
2019-05-13T18:48:01.701Z,13.11
2019-05-13T18:50:32.937Z,13.02
2019-05-13T18:53:03.969Z,12.90
2019-05-13T18:55:56.416Z,12.75
2019-05-13T19:02:04.883Z,12.60
2019-05-13T19:05:14.830Z,12.54
2019-05-13T19:08:28.510Z,12.47
2019-05-13T19:11:01.132Z,12.40
2019-05-13T19:13:54.090Z,12.31
2019-05-13T19:16:43.435Z,12.27
2019-05-13T19:22:34.639Z,12.20
2019-05-13T19:25:24.889Z,12.10
2019-05-13T19:27:55.258Z,12.01
2019-05-13T19:31:12.820Z,11.93
2019-05-13T19:33:55.520Z,11.82
2019-05-13T19:36:37.195Z,11.75
2019-05-13T19:39:18.856Z,11.72
2019-05-13T19:41:50.199Z,11.69
2019-05-13T19:44:41.984Z,11.68
2019-05-13T19:48:11.802Z,11.69
2019-05-13T19:50:44.148Z,11.65
2019-05-13T19:57:36.152Z,11.61
2019-05-13T20:00:18.154Z,11.61
2019-05-13T20:06:48.385Z,11.58
2019-05-13T20:09:35.247Z,11.47
2019-05-13T20:11:55.625Z,11.46
2019-05-13T20:14:29.286Z,11.42
2019-05-13T20:17:05.251Z,11.36
2019-05-13T20:19:50.802Z,11.29
2019-05-13T20:22:42.159Z,11.21
2019-05-13T20:25:32.036Z,11.17
2019-05-13T20:28:21.649Z,11.12
2019-05-13T20:31:32.227Z,11.00
2019-05-13T20:34:16.091Z,10.91
2019-05-13T20:37:13.925Z,10.70
2019-05-13T20:40:03.267Z,10.54
2019-05-13T20:42:52.951Z,10.45
2019-05-13T20:45:23.407Z,10.33
2019-05-13T20:50:28.003Z,10.28
2019-05-13T20:56:46.089Z,10.00
2019-05-13T21:02:31.873Z,9.50
2019-05-13T21:05:41.703Z,9.33
2019-05-13T21:15:28.215Z,8.82
2019-05-13T21:18:18.605Z,8.66
2019-05-13T21:21:31.299Z,8.54
2019-05-13T21:24:21.347Z,8.43
2019-05-13T21:27:11.876Z,8.27
2019-05-13T21:30:04.784Z,8.17
2019-05-13T21:33:13.216Z,8.09
2019-05-13T21:36:03.087Z,8.09
2019-05-13T21:38:53.733Z,7.96
2019-05-13T21:41:43.342Z,7.83
2019-05-13T21:44:53.087Z,7.82
2019-05-13T21:50:36.174Z,7.65
2019-05-13T21:53:02.033Z,7.60
2019-05-13T21:55:52.169Z,7.53
2019-05-13T21:58:22.865Z,7.46
2019-05-13T22:04:21.489Z,7.42
2019-05-13T22:07:31.546Z,7.37
2019-05-13T22:10:21.666Z,7.30
2019-05-13T22:13:14.910Z,7.22
2019-05-13T22:16:04.408Z,6.28
2019-05-13T22:18:54.050Z,7.07
2019-05-13T22:21:45.236Z,7.02
2019-05-13T22:24:34.649Z,6.45
2019-05-13T22:27:24.371Z,6.94
2019-05-13T22:30:14.081Z,6.89
2019-05-13T22:36:31.791Z,6.70
2019-05-13T22:39:22.480Z,6.67
2019-05-13T22:42:26.793Z,6.58
2019-05-13T22:45:03.222Z,6.56
2019-05-13T22:47:54.252Z,6.57
2019-05-13T22:50:43.996Z,6.51
2019-05-13T22:53:14.367Z,6.47
2019-05-13T22:56:04.002Z,6.46
2019-05-13T22:59:13.659Z,6.42
2019-05-13T23:02:02.825Z,6.44
2019-05-13T23:04:33.248Z,6.43
2019-05-13T23:07:38.102Z,6.38
2019-05-13T23:10:13.897Z,6.33
2019-05-13T23:13:08.185Z,6.23
2019-05-13T23:15:57.537Z,6.20
2019-05-13T23:18:27.829Z,6.18
2019-05-13T23:21:17.264Z,6.08
2019-05-13T23:24:16.018Z,6.02
2019-05-13T23:27:06.900Z,5.99
2019-05-13T23:29:37.218Z,5.98
2019-05-13T23:32:26.510Z,5.87
2019-05-13T23:37:55.470Z,5.78
2019-05-13T23:40:25.765Z,5.79
2019-05-13T23:43:15.138Z,5.74
2019-05-13T23:46:04.500Z,5.76
2019-05-13T23:48:54.053Z,5.74
2019-05-13T23:51:24.715Z,5.72
2019-05-13T23:53:55.906Z,5.62
2019-05-13T23:56:45.545Z,5.57
2019-05-13T23:59:34.872Z,5.55
